createdAt,value
2016-04-05T00:01:24.733Z,8.25
2016-04-05T00:02:16.969Z,8.34
2016-04-05T00:03:18.222Z,8.26
2016-04-05T00:04:26.366Z,8.19
2016-04-05T00:05:25.978Z,8.14
2016-04-05T00:07:16.500Z,8.1
2016-04-05T00:09:17.693Z,8.06
2016-04-05T00:10:26.523Z,8.01
2016-04-05T00:11:16.994Z,8.03
2016-04-05T00:12:16.872Z,8.04
2016-04-05T00:13:17.140Z,8.09
2016-04-05T00:14:17.221Z,8.09
2016-04-05T00:16:16.179Z,8.21
2016-04-05T00:17:16.135Z,8.1
2016-04-05T00:18:16.122Z,8.17
2016-04-05T00:19:16.329Z,8.25
2016-04-05T00:20:16.222Z,8.44
2016-04-05T00:21:16.100Z,8.47
2016-04-05T00:22:24.728Z,8.68
2016-04-05T00:23:24.698Z,8.71
2016-04-05T00:25:16.016Z,8.89
2016-04-05T00:26:26.628Z,8.92
2016-04-05T00:27:16.709Z,8.95
2016-04-05T00:29:16.012Z,9.01
2016-04-05T00:30:24.733Z,9.2
2016-04-05T00:31:15.986Z,9.17
2016-04-05T00:32:24.942Z,9.26
2016-04-05T00:33:15.945Z,9.16
2016-04-05T00:34:16.041Z,9.24
2016-04-05T00:35:21.575Z,9.32
2016-04-05T00:36:15.936Z,9.39
2016-04-05T00:38:24.707Z,9.37
2016-04-05T00:39:16.069Z,9.37
2016-04-05T00:40:16.026Z,9.44
2016-04-05T00:42:15.938Z,9.52
2016-04-05T00:43:15.877Z,9.44
2016-04-05T00:44:15.912Z,9.48
2016-04-05T00:45:15.851Z,9.5
2016-04-05T00:46:15.932Z,9.45
2016-04-05T00:47:16.123Z,9.48
2016-04-05T00:48:15.937Z,9.48
2016-04-05T00:49:15.862Z,9.48
2016-04-05T00:50:47.039Z,9.45
2016-04-05T00:52:16.354Z,9.52
2016-04-05T00:53:16.200Z,9.47
2016-04-05T00:54:16.220Z,9.48
2016-04-05T00:55:16.112Z,9.5
2016-04-05T00:56:25.459Z,9.55
2016-04-05T00:57:24.790Z,9.5
2016-04-05T00:58:28.558Z,9.55
2016-04-05T00:59:25.436Z,9.63
2016-04-05T01:00:15.797Z,9.59
2016-04-05T01:01:16.160Z,9.55
2016-04-05T01:02:17.413Z,9.66
2016-04-05T01:03:24.806Z,9.64
2016-04-05T01:04:25.809Z,9.72
2016-04-05T01:09:16.510Z,9.64
2016-04-05T01:10:15.935Z,9.64
2016-04-05T01:11:16.515Z,9.56
2016-04-05T01:14:29.210Z,9.7
2016-04-05T01:16:18.278Z,9.66
2016-04-05T01:17:15.875Z,9.67
2016-04-05T01:18:16.596Z,9.64
2016-04-05T01:19:25.037Z,9.57
2016-04-05T01:20:25.634Z,9.57
2016-04-05T01:22:26.560Z,9.52
2016-04-05T01:23:16.781Z,9.56
2016-04-05T01:25:16.959Z,9.52
2016-04-05T01:26:16.430Z,9.47
2016-04-05T01:27:23.870Z,9.53
2016-04-05T01:31:26.475Z,9.56
2016-04-05T01:32:15.978Z,9.56
2016-04-05T01:33:15.794Z,9.52
2016-04-05T01:34:26.655Z,9.59
2016-04-05T01:35:16.908Z,9.66
2016-04-05T01:36:16.472Z,9.67
2016-04-05T01:37:15.866Z,9.67
2016-04-05T01:38:16.041Z,9.67
2016-04-05T01:39:17.184Z,9.67
2016-04-05T01:40:23.813Z,9.64
2016-04-05T01:41:24.768Z,9.74
2016-04-05T01:43:16.305Z,9.78
2016-04-05T01:44:15.635Z,9.84
2016-04-05T01:46:15.990Z,9.81
2016-04-05T01:48:17.954Z,9.9
2016-04-05T01:49:16.650Z,9.8
2016-04-05T01:50:16.388Z,9.75
2016-04-05T01:52:16.221Z,9.77
2016-04-05T01:53:16.678Z,9.85
2016-04-05T01:55:16.137Z,9.82
2016-04-05T01:56:17.311Z,9.75
2016-04-05T01:57:15.829Z,9.72
2016-04-05T01:59:15.412Z,9.75
2016-04-05T02:00:15.697Z,9.75
2016-04-05T02:01:15.684Z,9.7
2016-04-05T02:02:15.686Z,9.52
2016-04-05T02:04:24.817Z,9.64
2016-04-05T02:05:15.898Z,9.48
2016-04-05T02:07:23.809Z,9.53
2016-04-05T02:09:16.430Z,9.39
2016-04-05T02:11:16.216Z,9.39
2016-04-05T02:12:25.108Z,9.39
2016-04-05T02:13:15.736Z,9.34
2016-04-05T02:14:16.114Z,9.29
2016-04-05T02:15:16.288Z,9.3
2016-04-05T02:16:15.526Z,9.21
2016-04-05T02:17:15.590Z,9.34
2016-04-05T02:18:16.249Z,9.37
2016-04-05T02:19:16.081Z,9.32
2016-04-05T02:20:16.755Z,9.3
2016-04-05T02:21:16.055Z,9.39
2016-04-05T02:22:15.932Z,9.37
2016-04-05T02:23:15.420Z,9.27
2016-04-05T02:25:27.518Z,9.44
2016-04-05T02:26:23.787Z,9.35
2016-04-05T02:27:24.773Z,9.45
2016-04-05T02:28:16.245Z,9.42
2016-04-05T02:29:25.436Z,9.5
2016-04-05T02:30:15.656Z,9.53
2016-04-05T02:31:25.035Z,9.45
2016-04-05T02:32:17.725Z,9.47
2016-04-05T02:33:23.822Z,9.52
2016-04-05T02:34:16.808Z,9.52
2016-04-05T02:35:15.436Z,9.47
2016-04-05T02:36:23.798Z,9.48
2016-04-05T02:37:23.786Z,9.44
2016-04-05T02:39:15.760Z,9.44
2016-04-05T02:41:15.452Z,9.45
2016-04-05T02:44:16.070Z,9.56
2016-04-05T02:45:15.290Z,9.45
2016-04-05T02:47:15.426Z,9.56
2016-04-05T02:48:15.838Z,9.59
2016-04-05T02:49:23.828Z,9.48
2016-04-05T02:51:15.020Z,9.62
2016-04-05T02:53:26.579Z,9.48
2016-04-05T02:54:15.108Z,9.48
2016-04-05T02:55:15.107Z,9.45
2016-04-05T02:56:15.030Z,9.52
2016-04-05T02:57:16.594Z,9.52
2016-04-05T02:59:15.033Z,9.45
2016-04-05T03:00:16.534Z,9.35
2016-04-05T03:01:17.130Z,9.41
2016-04-05T03:02:15.569Z,9.32
2016-04-05T03:03:14.978Z,9.17
2016-04-05T03:04:16.105Z,9.16
2016-04-05T03:05:43.263Z,9.08
2016-04-05T03:06:56.487Z,8.98
2016-04-05T03:08:16.443Z,8.98
2016-04-05T03:10:54.639Z,8.86
2016-04-05T03:12:16.172Z,8.71
2016-04-05T03:13:30.379Z,8.76
2016-04-05T03:14:46.147Z,8.67
2016-04-05T03:15:56.715Z,8.74
2016-04-05T03:18:56.316Z,8.6
2016-04-05T03:22:15.918Z,8.6
2016-04-05T03:23:53.017Z,8.52
2016-04-05T03:25:31.442Z,8.57
2016-04-05T03:27:02.182Z,8.49
2016-04-05T03:28:36.684Z,8.61
2016-04-05T03:30:11.050Z,8.64
2016-04-05T03:31:44.240Z,8.62
2016-04-05T03:34:36.404Z,8.62
2016-04-05T03:34:57.985Z,8.77
2016-04-05T03:36:00.750Z,8.68
2016-04-05T03:36:58.113Z,8.69
2016-04-05T03:37:58.083Z,8.68
2016-04-05T03:39:06.697Z,8.71
2016-04-05T03:39:57.886Z,8.74
2016-04-05T03:40:58.436Z,8.71
2016-04-05T03:41:58.204Z,8.72
2016-04-05T03:43:00.472Z,8.82
2016-04-05T03:43:59.428Z,8.82
2016-04-05T03:44:58.510Z,8.86
2016-04-05T03:45:59.652Z,8.89
2016-04-05T03:46:57.921Z,8.86
2016-04-05T03:49:00.036Z,9.04
2016-04-05T03:50:57.869Z,8.98
2016-04-05T03:53:59.002Z,9.03
2016-04-05T03:54:59.755Z,8.94
2016-04-05T03:55:57.821Z,9.05
2016-04-05T03:57:00.182Z,9
2016-04-05T03:59:57.721Z,9
2016-04-05T04:01:57.992Z,9.01
2016-04-05T04:03:11.683Z,8.98
2016-04-05T04:04:04.325Z,8.94
2016-04-05T04:04:59.844Z,9
2016-04-05T04:05:59.206Z,8.98
2016-04-05T04:07:07.475Z,9.08
2016-04-05T04:08:59.292Z,8.92
2016-04-05T04:09:58.608Z,8.82
2016-04-05T04:10:58.751Z,8.85
2016-04-05T04:11:59.364Z,8.72
2016-04-05T04:13:06.663Z,8.76
2016-04-05T04:13:58.759Z,8.61
2016-04-05T04:14:59.183Z,8.61
2016-04-05T04:15:57.843Z,8.57
2016-04-05T04:16:58.314Z,8.47
2016-04-05T04:17:58.644Z,8.42
2016-04-05T04:18:57.851Z,8.39
2016-04-05T04:19:57.885Z,8.34
2016-04-05T04:20:59.012Z,8.22
2016-04-05T04:21:57.734Z,8.17
2016-04-05T04:22:57.939Z,8.31
2016-04-05T04:23:57.785Z,8.11
2016-04-05T04:24:57.788Z,8.1
2016-04-05T04:25:57.776Z,8.09
2016-04-05T04:26:57.998Z,8.07
2016-04-05T04:27:58.000Z,8.04
2016-04-05T04:28:58.034Z,7.99
2016-04-05T04:29:58.036Z,7.98
2016-04-05T04:30:58.648Z,7.93
2016-04-05T04:31:58.870Z,7.85
2016-04-05T04:32:59.123Z,7.82
2016-04-05T04:34:09.048Z,7.83
2016-04-05T04:34:59.019Z,7.8
2016-04-05T04:35:58.552Z,7.63
2016-04-05T04:36:58.806Z,7.59
2016-04-05T04:37:58.855Z,7.56
2016-04-05T04:38:58.514Z,7.56
2016-04-05T04:39:58.626Z,7.49
2016-04-05T04:40:58.644Z,7.55
2016-04-05T04:41:58.381Z,7.4
2016-04-05T04:42:59.150Z,7.37
2016-04-05T04:43:58.871Z,7.39
2016-04-05T04:44:57.874Z,7.37
2016-04-05T04:45:57.549Z,7.22
2016-04-05T04:46:58.708Z,7.23
2016-04-05T04:47:57.632Z,7.27
2016-04-05T04:48:59.041Z,7.22
2016-04-05T04:49:58.465Z,7.15
2016-04-05T04:50:58.327Z,7.09
2016-04-05T04:52:07.658Z,7.08
2016-04-05T04:52:57.660Z,7.15
2016-04-05T04:54:05.633Z,7.01
2016-04-05T04:54:58.479Z,7.15
2016-04-05T04:56:58.579Z,7.13
2016-04-05T04:57:58.456Z,7.05
2016-04-05T04:58:59.115Z,7.03
2016-04-05T04:59:58.304Z,7
2016-04-05T05:00:58.901Z,7.03
2016-04-05T05:01:58.513Z,7.03
2016-04-05T05:02:58.640Z,7.12
2016-04-05T05:04:08.097Z,7.13
2016-04-05T05:04:59.584Z,7.13
2016-04-05T05:05:58.273Z,7.11
2016-04-05T05:06:58.683Z,7.18
2016-04-05T05:07:58.701Z,7.21
2016-04-05T05:09:58.550Z,7.16
2016-04-05T05:10:59.881Z,7.18
2016-04-05T05:11:58.431Z,7.18
2016-04-05T05:12:58.777Z,7.23
2016-04-05T05:13:57.514Z,7.21
2016-04-05T05:14:58.236Z,7.21
2016-04-05T05:15:58.958Z,7.22
2016-04-05T05:16:58.507Z,7.26
2016-04-05T05:17:59.634Z,7.23
2016-04-05T05:18:59.950Z,7.33
2016-04-05T05:20:00.124Z,7.27
2016-04-05T05:21:00.235Z,7.36
2016-04-05T05:22:00.864Z,7.31
2016-04-05T05:24:00.338Z,7.3
2016-04-05T05:26:00.327Z,7.36
2016-04-05T05:27:00.580Z,7.33
2016-04-05T05:28:00.474Z,7.37
2016-04-05T05:29:00.133Z,7.4
2016-04-05T05:30:00.635Z,7.4
2016-04-05T05:31:00.170Z,7.37
2016-04-05T05:32:00.390Z,7.49
2016-04-05T05:33:00.175Z,7.44
2016-04-05T05:34:08.678Z,7.45
2016-04-05T05:36:00.089Z,7.45
2016-04-05T05:38:00.203Z,7.51
2016-04-05T05:39:00.848Z,7.54
2016-04-05T05:41:00.196Z,7.63
2016-04-05T05:42:59.920Z,7.59
2016-04-05T05:44:00.173Z,7.56
2016-04-05T05:45:00.020Z,7.71
2016-04-05T05:45:59.788Z,7.78
2016-04-05T05:47:00.009Z,7.77
2016-04-05T05:47:59.996Z,7.78
2016-04-05T05:49:03.639Z,7.86
2016-04-05T05:50:00.126Z,7.89
2016-04-05T05:51:00.066Z,7.92
2016-04-05T05:52:00.304Z,8.01
2016-04-05T05:53:08.713Z,8.09
2016-04-05T05:54:00.419Z,7.99
2016-04-05T05:54:59.968Z,8.06
2016-04-05T05:56:00.502Z,8.21
2016-04-05T05:57:00.396Z,8.16
2016-04-05T05:58:00.226Z,8.25
2016-04-05T05:59:00.385Z,8.25
2016-04-05T06:00:07.263Z,8.34
2016-04-05T06:00:57.079Z,8.4
2016-04-05T06:03:09.301Z,8.46
2016-04-05T06:03:59.634Z,8.52
2016-04-05T06:05:08.589Z,8.46
2016-04-05T06:05:59.903Z,8.52
2016-04-05T06:07:00.032Z,8.61
2016-04-05T06:08:00.784Z,8.64
2016-04-05T06:09:02.006Z,8.68
2016-04-05T06:10:00.071Z,8.71
2016-04-05T06:11:01.980Z,8.76
2016-04-05T06:11:57.014Z,8.76
2016-04-05T06:13:00.611Z,8.82
2016-04-05T06:14:00.035Z,8.87
2016-04-05T06:14:56.910Z,8.92
2016-04-05T06:16:00.509Z,8.9
2016-04-05T06:17:00.855Z,8.95
2016-04-05T06:17:59.936Z,8.98
2016-04-05T06:18:59.142Z,9
2016-04-05T06:20:00.207Z,8.97
2016-04-05T06:20:57.097Z,9.03
2016-04-05T06:21:59.572Z,9.03
2016-04-05T06:22:59.622Z,9.04
2016-04-05T06:23:59.531Z,9.17
2016-04-05T06:24:56.594Z,9.23
2016-04-05T06:25:59.738Z,9.17
2016-04-05T06:26:57.035Z,9.29
2016-04-05T06:27:56.961Z,9.32
2016-04-05T06:28:56.916Z,9.41
2016-04-05T06:29:59.532Z,9.52
2016-04-05T06:30:56.719Z,9.52
2016-04-05T06:32:03.427Z,9.56
2016-04-05T06:33:04.757Z,9.64
2016-04-05T06:33:59.745Z,9.74
2016-04-05T06:34:56.839Z,9.77
2016-04-05T06:36:56.719Z,9.93
2016-04-05T06:38:05.631Z,10.03
2016-04-05T06:38:57.774Z,9.93
2016-04-05T06:40:00.651Z,10.07
2016-04-05T06:40:56.292Z,10.15
2016-04-05T06:42:05.689Z,10.28
2016-04-05T06:43:31.581Z,10.57
2016-04-05T06:43:58.600Z,10.61
2016-04-05T06:45:09.775Z,10.95
2016-04-05T06:45:59.934Z,11.15
2016-04-05T06:46:58.108Z,11.46
2016-04-05T06:47:58.672Z,11.81
2016-04-05T06:49:10.692Z,12.34
2016-04-05T06:50:00.022Z,12.53
2016-04-05T06:50:59.822Z,12.96
2016-04-05T06:51:59.606Z,13.27
2016-04-05T06:52:59.780Z,13.7
2016-04-05T06:53:59.783Z,14.08
2016-04-05T06:55:08.646Z,14.51
2016-04-05T06:55:59.444Z,14.83
2016-04-05T06:56:59.385Z,15.15
2016-04-05T06:58:00.013Z,15.52
2016-04-05T06:58:59.437Z,15.84
2016-04-05T06:59:59.815Z,16.27
2016-04-05T07:00:59.537Z,16.82
2016-04-05T07:01:59.507Z,17.2
2016-04-05T07:02:59.495Z,17.74
2016-04-05T07:03:59.748Z,18.16
2016-04-05T07:04:59.672Z,18.39
2016-04-05T07:05:59.753Z,18.74
2016-04-05T07:06:59.896Z,19.24
2016-04-05T07:07:59.760Z,19.53
2016-04-05T07:09:59.672Z,20.29
2016-04-05T07:10:59.939Z,20.38
2016-04-05T07:11:59.911Z,20.38
2016-04-05T07:12:59.211Z,20.44
2016-04-05T07:13:59.370Z,20.57
2016-04-05T07:14:59.841Z,20.86
2016-04-05T07:15:59.578Z,21.23
2016-04-05T07:16:59.581Z,21.64
2016-04-05T07:18:00.913Z,21.74
2016-04-05T07:18:59.602Z,21.76
2016-04-05T07:19:59.871Z,21.99
2016-04-05T07:21:59.876Z,22.18
2016-04-05T07:22:59.691Z,22.27
2016-04-05T07:23:59.819Z,21.99
2016-04-05T07:25:01.087Z,21.59
2016-04-05T07:25:59.934Z,21.38
2016-04-05T07:26:59.279Z,21.31
2016-04-05T07:27:59.267Z,21.28
2016-04-05T07:28:59.317Z,21.38
2016-04-05T07:30:59.432Z,21.27
2016-04-05T07:31:59.668Z,21.36
2016-04-05T07:32:59.514Z,21.36
2016-04-05T07:34:00.017Z,21.31
2016-04-05T07:35:00.317Z,21.13
2016-04-05T07:35:59.586Z,20.68
2016-04-05T07:37:00.431Z,20.2
2016-04-05T07:37:59.904Z,19.67
2016-04-05T07:39:00.172Z,19.3
2016-04-05T07:39:59.971Z,19.02
2016-04-05T07:40:59.599Z,18.75
2016-04-05T07:41:59.945Z,18.49
2016-04-05T07:42:59.605Z,18.19
2016-04-05T07:43:59.982Z,17.84
2016-04-05T07:45:00.016Z,17.47
2016-04-05T07:45:59.534Z,17.3
2016-04-05T07:46:59.771Z,17.09
2016-04-05T07:48:00.227Z,16.82
2016-04-05T07:49:00.183Z,16.69
2016-04-05T07:50:00.374Z,16.48
2016-04-05T07:50:59.501Z,16.44
2016-04-05T07:51:59.316Z,16.26
2016-04-05T07:52:59.428Z,16.07
2016-04-05T07:54:00.212Z,16.06
2016-04-05T07:55:00.012Z,15.91
2016-04-05T07:56:21.702Z,15.81
2016-04-05T07:57:48.220Z,15.68
2016-04-05T07:59:03.476Z,15.65
2016-04-05T08:00:19.931Z,15.6
2016-04-05T08:01:35.215Z,15.67
2016-04-05T08:02:53.014Z,15.63
2016-04-05T08:04:13.707Z,15.65
2016-04-05T08:05:32.726Z,15.77
2016-04-05T08:06:53.385Z,15.92
2016-04-05T08:08:09.109Z,15.88
2016-04-05T08:10:37.989Z,16.02
2016-04-05T08:11:53.476Z,16.11
2016-04-05T08:13:13.170Z,16.17
2016-04-05T08:14:32.000Z,16.32
2016-04-05T08:16:00.364Z,16.25
2016-04-05T08:17:19.071Z,16.27
2016-04-05T08:18:41.339Z,16.18
2016-04-05T08:19:57.966Z,16.26
2016-04-05T08:21:19.644Z,16.37
2016-04-05T08:22:37.318Z,16.21
2016-04-05T08:23:57.274Z,16.29
2016-04-05T08:25:17.030Z,16.33
2016-04-05T08:25:45.124Z,16.36
2016-04-05T08:26:46.407Z,16.29
2016-04-05T08:27:59.647Z,16.27
2016-04-05T08:29:00.712Z,16.27
2016-04-05T08:29:59.840Z,16.27
2016-04-05T08:31:01.155Z,16.3
2016-04-05T08:31:59.923Z,16.3
2016-04-05T08:32:59.895Z,16.3
2016-04-05T08:33:59.820Z,16.27
2016-04-05T08:35:00.745Z,16.18
2016-04-05T08:36:00.575Z,16.21
2016-04-05T08:37:01.281Z,16.26
2016-04-05T08:37:59.939Z,16.29
2016-04-05T08:39:00.114Z,16.33
2016-04-05T08:40:10.148Z,16.3
2016-04-05T08:41:03.400Z,16.32
2016-04-05T08:41:59.838Z,16.33
2016-04-05T08:42:59.810Z,16.26
2016-04-05T08:44:00.299Z,16.32
2016-04-05T08:45:04.161Z,16.39
2016-04-05T08:46:11.680Z,16.55
2016-04-05T08:47:00.105Z,16.44
2016-04-05T08:47:59.995Z,16.49
2016-04-05T08:49:03.611Z,16.54
2016-04-05T08:49:59.689Z,16.62
2016-04-05T08:51:00.255Z,16.65
2016-04-05T08:52:00.274Z,16.67
2016-04-05T08:53:02.479Z,16.7
2016-04-05T08:53:59.713Z,16.8
2016-04-05T08:54:59.858Z,16.72
2016-04-05T08:56:00.016Z,16.81
2016-04-05T08:57:02.210Z,16.99
2016-04-05T08:59:07.730Z,16.92
2016-04-05T09:00:01.780Z,16.97
2016-04-05T09:00:59.780Z,17.05
2016-04-05T09:02:03.145Z,16.97
2016-04-05T09:04:02.151Z,16.91
2016-04-05T09:05:02.606Z,17.03
2016-04-05T09:06:02.796Z,17.1
2016-04-05T09:07:02.595Z,17.09
2016-04-05T09:08:02.801Z,17.02
2016-04-05T09:09:03.039Z,16.94
2016-04-05T09:10:02.842Z,17.1
2016-04-05T09:11:02.893Z,17.02
2016-04-05T09:12:03.427Z,17.05
2016-04-05T09:13:01.648Z,17.15
2016-04-05T09:14:11.182Z,17.1
2016-04-05T09:15:03.372Z,17.21
2016-04-05T09:15:59.950Z,17.25
2016-04-05T09:16:59.781Z,17.22
2016-04-05T09:17:59.986Z,17.24
2016-04-05T09:19:02.742Z,17.27
2016-04-05T09:20:03.074Z,17.28
2016-04-05T09:21:03.154Z,17.31
2016-04-05T09:22:03.797Z,17.27
2016-04-05T09:23:03.535Z,17.25
2016-04-05T09:24:03.224Z,17.22
2016-04-05T09:25:02.993Z,17.24
2016-04-05T09:26:02.510Z,17.25
2016-04-05T09:27:03.186Z,17.27
2016-04-05T09:28:03.251Z,17.28
2016-04-05T09:30:03.225Z,17.39
2016-04-05T09:31:03.634Z,17.31
2016-04-05T09:32:03.184Z,17.28
2016-04-05T09:33:03.233Z,17.39
2016-04-05T09:34:02.892Z,17.52
2016-04-05T09:35:03.364Z,17.54
2016-04-05T09:36:03.945Z,17.58
2016-04-05T09:36:59.835Z,17.52
2016-04-05T09:38:02.840Z,17.58
2016-04-05T09:39:05.265Z,17.46
2016-04-05T09:40:02.892Z,17.46
2016-04-05T09:40:59.642Z,17.55
2016-04-05T09:41:59.692Z,17.47
2016-04-05T09:42:59.663Z,17.47
2016-04-05T09:44:16.794Z,17.52
2016-04-05T09:45:03.421Z,17.58
2016-04-05T09:46:02.564Z,17.66
2016-04-05T09:47:02.786Z,17.73
2016-04-05T09:48:02.819Z,17.83
2016-04-05T09:49:03.229Z,17.92
2016-04-05T09:50:03.420Z,18.02
2016-04-05T09:51:02.797Z,18.16
2016-04-05T09:52:03.049Z,18.24
2016-04-05T09:53:02.803Z,18.51
2016-04-05T09:54:04.008Z,18.65
2016-04-05T09:55:02.777Z,18.71
2016-04-05T15:28:37.102Z,18.78
2016-04-05T15:29:36.480Z,18.75
2016-04-05T15:30:36.030Z,18.69
2016-04-05T15:31:36.939Z,18.65
2016-04-05T15:32:37.098Z,18.66
2016-04-05T15:33:37.054Z,18.61
2016-04-05T15:34:36.744Z,18.65
2016-04-05T15:35:37.168Z,18.63
2016-04-05T15:36:37.749Z,18.53
2016-04-05T15:37:37.643Z,18.5
2016-04-05T15:38:37.020Z,18.54
2016-04-05T15:39:36.413Z,18.53
2016-04-05T15:40:44.354Z,18.45
